createdAt,value
2023-05-18T00:10:28.842Z,75.58
2023-05-18T00:22:29.222Z,76.80
2023-05-18T00:34:29.691Z,74.61
2023-05-18T00:46:30.331Z,74.19
2023-05-18T00:58:30.552Z,74.57
2023-05-18T01:10:31.072Z,72.83
2023-05-18T01:22:31.460Z,74.14
2023-05-18T01:34:31.941Z,75.81
2023-05-18T01:46:32.475Z,76.65
2023-05-18T01:58:32.889Z,74.04
2023-05-18T02:10:33.278Z,73.82
2023-05-18T02:22:33.699Z,73.91
2023-05-18T02:34:34.152Z,76.28
2023-05-18T02:46:34.598Z,76.88
2023-05-18T02:58:35.054Z,78.94
2023-05-18T03:10:35.572Z,74.03
2023-05-18T03:22:36.042Z,74.40
2023-05-18T03:34:36.441Z,73.44
2023-05-18T03:46:36.916Z,73.09
2023-05-18T03:58:37.341Z,74.59
2023-05-18T04:10:37.811Z,75.56
2023-05-18T04:22:38.267Z,75.00
2023-05-18T04:34:38.733Z,75.71
2023-05-18T04:46:39.169Z,75.49
2023-05-18T04:58:39.585Z,75.80
2023-05-18T05:10:40.085Z,75.03
2023-05-18T05:22:40.551Z,75.20
2023-05-18T05:34:40.950Z,73.71
2023-05-18T05:46:41.459Z,73.31
2023-05-18T05:58:41.861Z,73.00
2023-05-18T06:10:42.315Z,72.25
2023-05-18T06:22:42.736Z,72.65
2023-05-18T06:34:43.437Z,71.99
2023-05-18T06:46:43.689Z,71.69
2023-05-18T06:58:44.092Z,71.56
2023-05-18T07:10:44.559Z,71.14
2023-05-18T07:22:45.072Z,70.57
2023-05-18T07:34:45.502Z,71.28
2023-05-18T07:46:46.027Z,70.62
2023-05-18T07:58:46.399Z,71.76
2023-05-18T08:10:46.848Z,71.90
2023-05-18T08:22:47.312Z,73.26
2023-05-18T08:34:47.736Z,72.66
2023-05-18T08:46:48.173Z,73.49
2023-05-18T08:58:48.608Z,72.32
2023-05-18T09:10:49.116Z,73.62
2023-05-18T09:22:49.556Z,73.10
2023-05-18T09:34:50.029Z,71.44
2023-05-18T09:46:50.513Z,72.91
2023-05-18T09:58:50.927Z,72.40
2023-05-18T10:10:51.385Z,73.10
2023-05-18T10:22:51.858Z,73.53
2023-05-18T10:34:52.269Z,73.98
2023-05-18T10:46:52.822Z,72.83
2023-05-18T10:58:53.154Z,72.14
2023-05-18T11:10:53.610Z,70.64
2023-05-18T11:22:54.154Z,72.71
2023-05-18T11:34:54.559Z,72.76
2023-05-18T11:46:54.985Z,71.25
2023-05-18T11:58:55.444Z,71.80
2023-05-18T12:10:55.894Z,73.61
2023-05-18T12:22:56.388Z,75.08
2023-05-18T12:34:56.798Z,75.36
2023-05-18T12:46:57.281Z,76.54
2023-05-18T12:58:57.730Z,76.33
2023-05-18T13:11:11.943Z,75.89
2023-05-18T13:22:58.606Z,77.92
2023-05-18T13:34:59.081Z,75.95
2023-05-18T13:46:59.507Z,75.18
2023-05-18T13:58:59.980Z,76.08
2023-05-18T14:11:00.435Z,76.90
2023-05-18T14:23:00.905Z,75.47
2023-05-18T14:35:01.335Z,75.11
2023-05-18T14:47:02.023Z,75.74
2023-05-18T14:59:02.225Z,72.76
2023-05-18T15:11:02.699Z,73.07
2023-05-18T15:23:03.109Z,73.24
2023-05-18T15:35:03.632Z,72.36
2023-05-18T15:47:04.047Z,72.69
2023-05-18T15:59:04.515Z,72.62
2023-05-18T16:11:04.967Z,73.29
2023-05-18T16:23:05.417Z,73.29
2023-05-18T16:35:05.853Z,74.37
2023-05-18T16:47:06.319Z,74.03
2023-05-18T16:59:06.784Z,75.60
2023-05-18T17:11:07.296Z,77.58
2023-05-18T17:23:07.681Z,77.23
2023-05-18T17:35:08.130Z,76.94
2023-05-18T17:47:08.729Z,77.02
2023-05-18T17:59:09.083Z,78.49
2023-05-18T18:11:09.541Z,77.78
2023-05-18T18:23:09.950Z,79.31
2023-05-18T18:35:10.422Z,79.09
2023-05-18T18:47:10.857Z,78.74
2023-05-18T18:59:11.328Z,80.89
2023-05-18T19:11:11.787Z,83.36
2023-05-18T19:23:12.249Z,83.33
2023-05-18T19:35:12.701Z,84.63
2023-05-18T19:47:13.156Z,85.42
2023-05-18T19:59:13.591Z,85.16
2023-05-18T20:11:14.019Z,86.40
2023-05-18T20:23:14.516Z,89.66
2023-05-18T20:35:14.903Z,90.14
2023-05-18T20:47:15.387Z,88.17
2023-05-18T20:59:15.833Z,89.99
2023-05-18T21:11:16.298Z,90.05
2023-05-18T21:23:16.737Z,93.47
2023-05-18T21:35:17.199Z,91.12
2023-05-18T21:47:17.664Z,93.54
2023-05-18T21:59:18.158Z,93.46
2023-05-18T22:11:18.531Z,93.01
2023-05-18T22:23:19.024Z,93.66
2023-05-18T22:35:19.448Z,93.40
2023-05-18T22:47:20.129Z,94.31
2023-05-18T22:59:20.333Z,94.98
2023-05-18T23:11:20.833Z,93.86
2023-05-18T23:23:21.265Z,94.73
2023-05-18T23:35:21.754Z,97.18
2023-05-18T23:47:22.205Z,97.72
2023-05-18T23:59:22.679Z,97.10
